sensor_id;sensor_type;location;lat;lon;timestamp;P1;durP1;ratioP1;P2;durP2;ratioP2
26656;SDS011;14279;50.010;8.260;2022-08-14T00:00:23;5.90;;;3.80;;
26656;SDS011;14279;50.010;8.260;2022-08-14T00:02:49;8.17;;;4.87;;
26656;SDS011;14279;50.010;8.260;2022-08-14T00:05:16;8.97;;;4.07;;
26656;SDS011;14279;50.010;8.260;2022-08-14T00:07:44;5.00;;;3.80;;
26656;SDS011;14279;50.010;8.260;2022-08-14T00:10:12;6.83;;;4.40;;
26656;SDS011;14279;50.010;8.260;2022-08-14T00:12:45;6.57;;;4.10;;
26656;SDS011;14279;50.010;8.260;2022-08-14T00:15:14;8.00;;;5.17;;
26656;SDS011;14279;50.010;8.260;2022-08-14T00:17:39;5.23;;;4.57;;
26656;SDS011;14279;50.010;8.260;2022-08-14T00:20:05;9.80;;;4.73;;
26656;SDS011;14279;50.010;8.260;2022-08-14T00:22:32;9.93;;;4.10;;
26656;SDS011;14279;50.010;8.260;2022-08-14T00:24:58;7.83;;;4.60;;
26656;SDS011;14279;50.010;8.260;2022-08-14T00:30:41;7.00;;;4.17;;
26656;SDS011;14279;50.010;8.260;2022-08-14T00:33:07;4.30;;;3.83;;
26656;SDS011;14279;50.010;8.260;2022-08-14T00:35:32;5.53;;;4.60;;
26656;SDS011;14279;50.010;8.260;2022-08-14T00:37:58;8.10;;;3.80;;
26656;SDS011;14279;50.010;8.260;2022-08-14T00:40:24;5.10;;;4.60;;
26656;SDS011;14279;50.010;8.260;2022-08-14T00:42:50;5.03;;;4.53;;
26656;SDS011;14279;50.010;8.260;2022-08-14T00:45:16;6.23;;;4.17;;
26656;SDS011;14279;50.010;8.260;2022-08-14T00:47:42;4.90;;;4.40;;
26656;SDS011;14279;50.010;8.260;2022-08-14T00:50:09;11.27;;;7.60;;
26656;SDS011;14279;50.010;8.260;2022-08-14T00:52:36;5.37;;;4.87;;
26656;SDS011;14279;50.010;8.260;2022-08-14T00:55:04;8.33;;;5.10;;
26656;SDS011;14279;50.010;8.260;2022-08-14T00:57:32;8.63;;;5.70;;
26656;SDS011;14279;50.010;8.260;2022-08-14T00:59:58;10.13;;;7.53;;
26656;SDS011;14279;50.010;8.260;2022-08-14T01:02:43;5.40;;;4.90;;
26656;SDS011;14279;50.010;8.260;2022-08-14T01:05:09;5.97;;;4.70;;
26656;SDS011;14279;50.010;8.260;2022-08-14T01:07:47;5.70;;;5.13;;
26656;SDS011;14279;50.010;8.260;2022-08-14T01:10:23;17.50;;;5.30;;
26656;SDS011;14279;50.010;8.260;2022-08-14T01:13:10;7.50;;;5.23;;
26656;SDS011;14279;50.010;8.260;2022-08-14T01:15:42;9.13;;;4.90;;
26656;SDS011;14279;50.010;8.260;2022-08-14T01:18:09;5.97;;;5.20;;
26656;SDS011;14279;50.010;8.260;2022-08-14T01:20:53;5.37;;;4.87;;
26656;SDS011;14279;50.010;8.260;2022-08-14T01:23:30;5.40;;;4.60;;
26656;SDS011;14279;50.010;8.260;2022-08-14T01:26:00;9.50;;;5.33;;
26656;SDS011;14279;50.010;8.260;2022-08-14T01:28:26;6.83;;;5.60;;
26656;SDS011;14279;50.010;8.260;2022-08-14T01:30:55;6.13;;;5.00;;
26656;SDS011;14279;50.010;8.260;2022-08-14T01:33:21;5.60;;;5.10;;
26656;SDS011;14279;50.010;8.260;2022-08-14T01:35:53;5.80;;;5.30;;
26656;SDS011;14279;50.010;8.260;2022-08-14T01:38:23;6.70;;;4.70;;
26656;SDS011;14279;50.010;8.260;2022-08-14T01:40:50;10.50;;;5.90;;
26656;SDS011;14279;50.010;8.260;2022-08-14T01:43:16;6.13;;;5.23;;
26656;SDS011;14279;50.010;8.260;2022-08-14T01:45:42;5.50;;;5.00;;
26656;SDS011;14279;50.010;8.260;2022-08-14T01:48:08;6.37;;;5.70;;
26656;SDS011;14279;50.010;8.260;2022-08-14T01:50:34;10.03;;;5.27;;
26656;SDS011;14279;50.010;8.260;2022-08-14T01:53:00;6.07;;;4.80;;
26656;SDS011;14279;50.010;8.260;2022-08-14T01:55:27;6.70;;;4.83;;
26656;SDS011;14279;50.010;8.260;2022-08-14T01:57:55;5.57;;;5.07;;
26656;SDS011;14279;50.010;8.260;2022-08-14T02:00:20;5.83;;;5.27;;
26656;SDS011;14279;50.010;8.260;2022-08-14T02:02:45;10.87;;;5.60;;
26656;SDS011;14279;50.010;8.260;2022-08-14T02:05:11;9.50;;;5.60;;
26656;SDS011;14279;50.010;8.260;2022-08-14T02:07:37;7.07;;;5.40;;
26656;SDS011;14279;50.010;8.260;2022-08-14T02:10:03;7.40;;;5.40;;
26656;SDS011;14279;50.010;8.260;2022-08-14T02:12:31;7.67;;;5.50;;
26656;SDS011;14279;50.010;8.260;2022-08-14T02:14:56;10.77;;;5.40;;
26656;SDS011;14279;50.010;8.260;2022-08-14T02:17:21;7.67;;;5.60;;
26656;SDS011;14279;50.010;8.260;2022-08-14T02:19:47;6.00;;;5.50;;
26656;SDS011;14279;50.010;8.260;2022-08-14T02:22:13;10.20;;;5.40;;
26656;SDS011;14279;50.010;8.260;2022-08-14T02:24:39;7.77;;;5.40;;
26656;SDS011;14279;50.010;8.260;2022-08-14T02:27:04;5.80;;;5.30;;
26656;SDS011;14279;50.010;8.260;2022-08-14T02:29:30;6.27;;;5.07;;
26656;SDS011;14279;50.010;8.260;2022-08-14T02:31:57;8.20;;;5.67;;
26656;SDS011;14279;50.010;8.260;2022-08-14T02:34:33;7.03;;;5.67;;
26656;SDS011;14279;50.010;8.260;2022-08-14T02:37:07;7.03;;;6.33;;
26656;SDS011;14279;50.010;8.260;2022-08-14T02:39:37;6.60;;;5.90;;
26656;SDS011;14279;50.010;8.260;2022-08-14T02:42:06;7.53;;;5.63;;
26656;SDS011;14279;50.010;8.260;2022-08-14T02:44:33;16.60;;;5.90;;
26656;SDS011;14279;50.010;8.260;2022-08-14T02:46:59;10.37;;;5.33;;
26656;SDS011;14279;50.010;8.260;2022-08-14T02:49:24;6.60;;;6.00;;
26656;SDS011;14279;50.010;8.260;2022-08-14T02:51:53;7.40;;;5.43;;
26656;SDS011;14279;50.010;8.260;2022-08-14T02:54:29;9.50;;;5.70;;
26656;SDS011;14279;50.010;8.260;2022-08-14T02:57:25;9.10;;;5.33;;
26656;SDS011;14279;50.010;8.260;2022-08-14T02:59:51;6.07;;;5.57;;
26656;SDS011;14279;50.010;8.260;2022-08-14T03:02:17;6.43;;;5.83;;
26656;SDS011;14279;50.010;8.260;2022-08-14T03:04:43;7.60;;;5.27;;
26656;SDS011;14279;50.010;8.260;2022-08-14T03:07:08;8.77;;;5.90;;
26656;SDS011;14279;50.010;8.260;2022-08-14T03:09:36;15.13;;;6.13;;
26656;SDS011;14279;50.010;8.260;2022-08-14T03:12:03;8.33;;;5.77;;
26656;SDS011;14279;50.010;8.260;2022-08-14T03:14:29;6.77;;;6.07;;
26656;SDS011;14279;50.010;8.260;2022-08-14T03:16:54;9.23;;;6.10;;
26656;SDS011;14279;50.010;8.260;2022-08-14T03:19:21;9.20;;;6.10;;
26656;SDS011;14279;50.010;8.260;2022-08-14T03:21:46;8.80;;;6.27;;
26656;SDS011;14279;50.010;8.260;2022-08-14T03:24:12;7.90;;;7.10;;
26656;SDS011;14279;50.010;8.260;2022-08-14T03:26:38;9.93;;;6.97;;
26656;SDS011;14279;50.010;8.260;2022-08-14T03:29:12;7.63;;;6.70;;
26656;SDS011;14279;50.010;8.260;2022-08-14T03:31:39;10.07;;;6.33;;
26656;SDS011;14279;50.010;8.260;2022-08-14T03:34:06;8.23;;;6.20;;
26656;SDS011;14279;50.010;8.260;2022-08-14T03:36:36;6.90;;;6.10;;
26656;SDS011;14279;50.010;8.260;2022-08-14T03:39:05;10.30;;;5.77;;
26656;SDS011;14279;50.010;8.260;2022-08-14T03:41:32;10.50;;;7.00;;
26656;SDS011;14279;50.010;8.260;2022-08-14T03:43:59;7.90;;;6.50;;
26656;SDS011;14279;50.010;8.260;2022-08-14T03:46:26;11.77;;;7.50;;
26656;SDS011;14279;50.010;8.260;2022-08-14T03:49:32;13.80;;;8.50;;
26656;SDS011;14279;50.010;8.260;2022-08-14T03:51:57;6.50;;;5.90;;
26656;SDS011;14279;50.010;8.260;2022-08-14T03:54:23;7.53;;;6.83;;
26656;SDS011;14279;50.010;8.260;2022-08-14T03:56:49;8.23;;;7.23;;
26656;SDS011;14279;50.010;8.260;2022-08-14T03:59:14;9.23;;;7.30;;
26656;SDS011;14279;50.010;8.260;2022-08-14T04:01:39;8.57;;;7.30;;
26656;SDS011;14279;50.010;8.260;2022-08-14T04:04:06;9.17;;;7.93;;
26656;SDS011;14279;50.010;8.260;2022-08-14T04:06:32;16.00;;;11.90;;
26656;SDS011;14279;50.010;8.260;2022-08-14T04:08:58;9.63;;;7.27;;
26656;SDS011;14279;50.010;8.260;2022-08-14T04:11:24;11.50;;;8.40;;
26656;SDS011;14279;50.010;8.260;2022-08-14T04:13:49;7.53;;;6.87;;
26656;SDS011;14279;50.010;8.260;2022-08-14T04:16:16;9.20;;;7.03;;
26656;SDS011;14279;50.010;8.260;2022-08-14T04:18:46;7.10;;;6.40;;
26656;SDS011;14279;50.010;8.260;2022-08-14T04:21:14;8.93;;;7.13;;
26656;SDS011;14279;50.010;8.260;2022-08-14T04:23:41;7.03;;;6.33;;
26656;SDS011;14279;50.010;8.260;2022-08-14T04:26:08;9.13;;;7.53;;
26656;SDS011;14279;50.010;8.260;2022-08-14T04:28:36;9.00;;;8.10;;
26656;SDS011;14279;50.010;8.260;2022-08-14T04:31:02;11.63;;;9.43;;
26656;SDS011;14279;50.010;8.260;2022-08-14T04:33:28;9.80;;;8.00;;
26656;SDS011;14279;50.010;8.260;2022-08-14T04:35:54;11.23;;;7.00;;
26656;SDS011;14279;50.010;8.260;2022-08-14T04:38:20;8.40;;;7.37;;
26656;SDS011;14279;50.010;8.260;2022-08-14T04:41:05;8.77;;;7.33;;
26656;SDS011;14279;50.010;8.260;2022-08-14T04:43:49;7.80;;;7.10;;
26656;SDS011;14279;50.010;8.260;2022-08-14T04:46:16;9.47;;;7.40;;
26656;SDS011;14279;50.010;8.260;2022-08-14T04:48:43;10.13;;;7.60;;
26656;SDS011;14279;50.010;8.260;2022-08-14T04:51:13;7.70;;;6.80;;
26656;SDS011;14279;50.010;8.260;2022-08-14T04:53:41;8.50;;;7.70;;
26656;SDS011;14279;50.010;8.260;2022-08-14T04:56:09;9.43;;;7.63;;
26656;SDS011;14279;50.010;8.260;2022-08-14T04:58:36;13.30;;;7.37;;
26656;SDS011;14279;50.010;8.260;2022-08-14T05:01:03;9.43;;;8.50;;
26656;SDS011;14279;50.010;8.260;2022-08-14T05:03:31;7.60;;;6.80;;
26656;SDS011;14279;50.010;8.260;2022-08-14T05:05:59;8.70;;;7.77;;
26656;SDS011;14279;50.010;8.260;2022-08-14T05:08:26;10.70;;;7.70;;
26656;SDS011;14279;50.010;8.260;2022-08-14T05:10:53;8.80;;;8.00;;
26656;SDS011;14279;50.010;8.260;2022-08-14T05:13:24;8.83;;;8.00;;
26656;SDS011;14279;50.010;8.260;2022-08-14T05:15:51;9.57;;;8.47;;
26656;SDS011;14279;50.010;8.260;2022-08-14T05:18:19;9.67;;;8.67;;
26656;SDS011;14279;50.010;8.260;2022-08-14T05:20:49;9.07;;;8.27;;
26656;SDS011;14279;50.010;8.260;2022-08-14T05:23:16;10.00;;;8.20;;
26656;SDS011;14279;50.010;8.260;2022-08-14T05:25:44;7.93;;;7.17;;
26656;SDS011;14279;50.010;8.260;2022-08-14T05:28:16;10.23;;;7.50;;
26656;SDS011;14279;50.010;8.260;2022-08-14T05:30:50;8.60;;;7.70;;
26656;SDS011;14279;50.010;8.260;2022-08-14T05:33:18;8.47;;;7.50;;
26656;SDS011;14279;50.010;8.260;2022-08-14T05:35:45;8.40;;;7.23;;
26656;SDS011;14279;50.010;8.260;2022-08-14T05:38:13;13.20;;;8.33;;
26656;SDS011;14279;50.010;8.260;2022-08-14T05:40:41;9.53;;;8.47;;
26656;SDS011;14279;50.010;8.260;2022-08-14T05:43:07;8.70;;;7.20;;
26656;SDS011;14279;50.010;8.260;2022-08-14T05:45:32;11.07;;;7.90;;
26656;SDS011;14279;50.010;8.260;2022-08-14T05:48:01;8.50;;;7.67;;
26656;SDS011;14279;50.010;8.260;2022-08-14T05:50:28;8.90;;;7.53;;
26656;SDS011;14279;50.010;8.260;2022-08-14T05:52:53;9.17;;;7.20;;
26656;SDS011;14279;50.010;8.260;2022-08-14T05:55:19;11.80;;;7.70;;
26656;SDS011;14279;50.010;8.260;2022-08-14T05:58:05;10.70;;;7.60;;
26656;SDS011;14279;50.010;8.260;2022-08-14T06:00:33;8.73;;;7.80;;
26656;SDS011;14279;50.010;8.260;2022-08-14T06:03:00;8.47;;;7.67;;
26656;SDS011;14279;50.010;8.260;2022-08-14T06:05:27;11.13;;;7.83;;
26656;SDS011;14279;50.010;8.260;2022-08-14T06:07:53;12.37;;;7.63;;
26656;SDS011;14279;50.010;8.260;2022-08-14T06:10:18;17.80;;;8.47;;
26656;SDS011;14279;50.010;8.260;2022-08-14T06:12:44;9.20;;;7.70;;
26656;SDS011;14279;50.010;8.260;2022-08-14T06:15:09;10.47;;;7.87;;
26656;SDS011;14279;50.010;8.260;2022-08-14T06:17:47;18.57;;;8.40;;
26656;SDS011;14279;50.010;8.260;2022-08-14T06:20:14;8.90;;;8.00;;
26656;SDS011;14279;50.010;8.260;2022-08-14T06:22:41;10.00;;;8.10;;
26656;SDS011;14279;50.010;8.260;2022-08-14T06:25:08;11.30;;;7.70;;
26656;SDS011;14279;50.010;8.260;2022-08-14T06:27:41;12.43;;;8.73;;
26656;SDS011;14279;50.010;8.260;2022-08-14T06:30:09;9.17;;;8.03;;
26656;SDS011;14279;50.010;8.260;2022-08-14T06:32:36;10.33;;;8.50;;
26656;SDS011;14279;50.010;8.260;2022-08-14T06:35:05;10.57;;;8.57;;
26656;SDS011;14279;50.010;8.260;2022-08-14T06:37:38;8.20;;;7.33;;
26656;SDS011;14279;50.010;8.260;2022-08-14T06:40:05;7.80;;;7.10;;
26656;SDS011;14279;50.010;8.260;2022-08-14T06:43:15;12.70;;;7.93;;
26656;SDS011;14279;50.010;8.260;2022-08-14T06:45:26;9.87;;;8.87;;
26656;SDS011;14279;50.010;8.260;2022-08-14T06:47:52;10.93;;;8.33;;
26656;SDS011;14279;50.010;8.260;2022-08-14T06:50:19;13.50;;;8.80;;
26656;SDS011;14279;50.010;8.260;2022-08-14T06:52:46;8.87;;;8.00;;
26656;SDS011;14279;50.010;8.260;2022-08-14T06:55:12;9.20;;;7.80;;
26656;SDS011;14279;50.010;8.260;2022-08-14T06:57:41;8.77;;;7.73;;
26656;SDS011;14279;50.010;8.260;2022-08-14T07:00:10;9.60;;;8.70;;
26656;SDS011;14279;50.010;8.260;2022-08-14T07:02:41;9.53;;;8.23;;
26656;SDS011;14279;50.010;8.260;2022-08-14T07:05:25;11.43;;;8.17;;
26656;SDS011;14279;50.010;8.260;2022-08-14T07:08:19;9.20;;;7.97;;
26656;SDS011;14279;50.010;8.260;2022-08-14T07:10:48;16.77;;;8.30;;
26656;SDS011;14279;50.010;8.260;2022-08-14T07:13:16;10.80;;;7.90;;
26656;SDS011;14279;50.010;8.260;2022-08-14T07:15:46;9.70;;;7.87;;
26656;SDS011;14279;50.010;8.260;2022-08-14T07:18:18;8.27;;;7.47;;
26656;SDS011;14279;50.010;8.260;2022-08-14T07:20:44;9.93;;;7.67;;
26656;SDS011;14279;50.010;8.260;2022-08-14T07:23:09;12.33;;;7.63;;
26656;SDS011;14279;50.010;8.260;2022-08-14T07:25:36;9.60;;;7.60;;
26656;SDS011;14279;50.010;8.260;2022-08-14T07:28:23;11.17;;;8.10;;
26656;SDS011;14279;50.010;8.260;2022-08-14T07:31:10;11.47;;;8.03;;
26656;SDS011;14279;50.010;8.260;2022-08-14T07:33:39;10.73;;;7.40;;
26656;SDS011;14279;50.010;8.260;2022-08-14T07:36:08;8.90;;;8.00;;
26656;SDS011;14279;50.010;8.260;2022-08-14T07:38:34;9.23;;;8.13;;
26656;SDS011;14279;50.010;8.260;2022-08-14T07:41:00;8.87;;;7.97;;
26656;SDS011;14279;50.010;8.260;2022-08-14T07:43:25;8.90;;;7.70;;
26656;SDS011;14279;50.010;8.260;2022-08-14T07:45:51;9.90;;;7.73;;
26656;SDS011;14279;50.010;8.260;2022-08-14T07:48:16;10.23;;;7.70;;
26656;SDS011;14279;50.010;8.260;2022-08-14T07:50:42;8.60;;;6.90;;
26656;SDS011;14279;50.010;8.260;2022-08-14T07:53:07;8.67;;;7.50;;
26656;SDS011;14279;50.010;8.260;2022-08-14T07:55:33;8.23;;;7.53;;
26656;SDS011;14279;50.010;8.260;2022-08-14T07:57:59;9.33;;;7.47;;
26656;SDS011;14279;50.010;8.260;2022-08-14T08:00:25;8.63;;;7.00;;
26656;SDS011;14279;50.010;8.260;2022-08-14T08:02:53;10.30;;;7.33;;
26656;SDS011;14279;50.010;8.260;2022-08-14T08:05:20;7.23;;;6.63;;
26656;SDS011;14279;50.010;8.260;2022-08-14T08:07:47;9.17;;;7.60;;
26656;SDS011;14279;50.010;8.260;2022-08-14T08:10:14;8.03;;;7.10;;
26656;SDS011;14279;50.010;8.260;2022-08-14T08:15:33;8.70;;;7.80;;
26656;SDS011;14279;50.010;8.260;2022-08-14T08:18:13;8.50;;;7.60;;
26656;SDS011;14279;50.010;8.260;2022-08-14T08:20:47;10.27;;;7.60;;
26656;SDS011;14279;50.010;8.260;2022-08-14T08:27:16;8.00;;;7.27;;
26656;SDS011;14279;50.010;8.260;2022-08-14T08:29:44;10.43;;;7.37;;
26656;SDS011;14279;50.010;8.260;2022-08-14T08:32:10;8.30;;;7.40;;
26656;SDS011;14279;50.010;8.260;2022-08-14T08:34:42;8.93;;;7.40;;
26656;SDS011;14279;50.010;8.260;2022-08-14T08:37:09;6.87;;;6.17;;
26656;SDS011;14279;50.010;8.260;2022-08-14T08:39:45;8.97;;;7.37;;
26656;SDS011;14279;50.010;8.260;2022-08-14T08:42:12;7.23;;;6.50;;
26656;SDS011;14279;50.010;8.260;2022-08-14T08:44:37;10.00;;;6.67;;
26656;SDS011;14279;50.010;8.260;2022-08-14T08:47:03;8.73;;;7.13;;
26656;SDS011;14279;50.010;8.260;2022-08-14T08:49:39;8.17;;;7.10;;
26656;SDS011;14279;50.010;8.260;2022-08-14T08:52:18;8.57;;;7.37;;
26656;SDS011;14279;50.010;8.260;2022-08-14T08:54:53;7.10;;;6.40;;
26656;SDS011;14279;50.010;8.260;2022-08-14T08:57:36;10.00;;;6.47;;
26656;SDS011;14279;50.010;8.260;2022-08-14T09:00:19;7.63;;;6.93;;
26656;SDS011;14279;50.010;8.260;2022-08-14T09:02:59;21.07;;;7.00;;
26656;SDS011;14279;50.010;8.260;2022-08-14T09:05:27;8.70;;;7.13;;
26656;SDS011;14279;50.010;8.260;2022-08-14T09:08:13;7.50;;;5.70;;
26656;SDS011;14279;50.010;8.260;2022-08-14T09:10:49;11.93;;;6.93;;
26656;SDS011;14279;50.010;8.260;2022-08-14T09:13:15;12.63;;;6.50;;
26656;SDS011;14279;50.010;8.260;2022-08-14T09:15:45;8.20;;;6.57;;
26656;SDS011;14279;50.010;8.260;2022-08-14T09:27:01;7.60;;;6.90;;
26656;SDS011;14279;50.010;8.260;2022-08-14T09:29:26;9.00;;;7.13;;
26656;SDS011;14279;50.010;8.260;2022-08-14T09:31:52;8.33;;;6.37;;
26656;SDS011;14279;50.010;8.260;2022-08-14T09:37:16;6.63;;;6.00;;
26656;SDS011;14279;50.010;8.260;2022-08-14T09:45:17;8.03;;;6.60;;
26656;SDS011;14279;50.010;8.260;2022-08-14T09:47:52;6.40;;;5.80;;
26656;SDS011;14279;50.010;8.260;2022-08-14T09:50:21;7.13;;;5.50;;
26656;SDS011;14279;50.010;8.260;2022-08-14T09:52:55;8.73;;;6.47;;
26656;SDS011;14279;50.010;8.260;2022-08-14T09:55:29;6.87;;;5.80;;
26656;SDS011;14279;50.010;8.260;2022-08-14T09:58:06;11.60;;;5.60;;
26656;SDS011;14279;50.010;8.260;2022-08-14T10:03:31;14.20;;;6.00;;
26656;SDS011;14279;50.010;8.260;2022-08-14T10:06:05;10.53;;;6.20;;
26656;SDS011;14279;50.010;8.260;2022-08-14T10:14:42;5.63;;;5.07;;
26656;SDS011;14279;50.010;8.260;2022-08-14T10:17:08;6.00;;;5.43;;
26656;SDS011;14279;50.010;8.260;2022-08-14T10:22:55;10.83;;;5.07;;
26656;SDS011;14279;50.010;8.260;2022-08-14T10:25:38;6.77;;;5.10;;
26656;SDS011;14279;50.010;8.260;2022-08-14T10:28:04;5.60;;;4.60;;
26656;SDS011;14279;50.010;8.260;2022-08-14T10:30:33;7.13;;;5.03;;
26656;SDS011;14279;50.010;8.260;2022-08-14T10:33:03;6.00;;;4.40;;
26656;SDS011;14279;50.010;8.260;2022-08-14T10:35:40;9.13;;;4.90;;
26656;SDS011;14279;50.010;8.260;2022-08-14T10:38:09;5.10;;;4.60;;
26656;SDS011;14279;50.010;8.260;2022-08-14T10:40:35;5.73;;;4.70;;
26656;SDS011;14279;50.010;8.260;2022-08-14T10:43:01;6.20;;;4.67;;
26656;SDS011;14279;50.010;8.260;2022-08-14T10:45:33;5.00;;;4.47;;
26656;SDS011;14279;50.010;8.260;2022-08-14T10:48:18;5.80;;;4.20;;
26656;SDS011;14279;50.010;8.260;2022-08-14T10:51:04;4.00;;;3.70;;
26656;SDS011;14279;50.010;8.260;2022-08-14T10:53:33;9.40;;;4.10;;
26656;SDS011;14279;50.010;8.260;2022-08-14T10:56:02;6.57;;;4.50;;
26656;SDS011;14279;50.010;8.260;2022-08-14T10:58:38;4.90;;;4.20;;
26656;SDS011;14279;50.010;8.260;2022-08-14T11:04:31;9.13;;;4.07;;
26656;SDS011;14279;50.010;8.260;2022-08-14T11:06:56;4.60;;;3.83;;
26656;SDS011;14279;50.010;8.260;2022-08-14T11:09:22;4.10;;;3.70;;
26656;SDS011;14279;50.010;8.260;2022-08-14T11:11:53;4.10;;;3.67;;
26656;SDS011;14279;50.010;8.260;2022-08-14T11:14:19;6.93;;;3.43;;
26656;SDS011;14279;50.010;8.260;2022-08-14T11:16:44;3.77;;;3.47;;
26656;SDS011;14279;50.010;8.260;2022-08-14T11:19:13;5.93;;;4.27;;
26656;SDS011;14279;50.010;8.260;2022-08-14T11:21:39;6.80;;;4.17;;
26656;SDS011;14279;50.010;8.260;2022-08-14T11:24:05;6.40;;;4.60;;
26656;SDS011;14279;50.010;8.260;2022-08-14T11:26:36;4.33;;;3.93;;
26656;SDS011;14279;50.010;8.260;2022-08-14T11:29:03;4.90;;;3.73;;
26656;SDS011;14279;50.010;8.260;2022-08-14T11:31:29;4.83;;;4.33;;
26656;SDS011;14279;50.010;8.260;2022-08-14T11:33:56;5.50;;;4.00;;
26656;SDS011;14279;50.010;8.260;2022-08-14T11:36:23;9.27;;;3.87;;
26656;SDS011;14279;50.010;8.260;2022-08-14T11:38:53;6.00;;;4.37;;
26656;SDS011;14279;50.010;8.260;2022-08-14T11:41:28;5.60;;;4.40;;
26656;SDS011;14279;50.010;8.260;2022-08-14T11:44:01;4.73;;;4.30;;
26656;SDS011;14279;50.010;8.260;2022-08-14T11:46:51;5.33;;;3.90;;
26656;SDS011;14279;50.010;8.260;2022-08-14T11:49:24;5.23;;;4.70;;
26656;SDS011;14279;50.010;8.260;2022-08-14T11:51:57;7.03;;;4.20;;
26656;SDS011;14279;50.010;8.260;2022-08-14T11:54:22;4.43;;;3.87;;
26656;SDS011;14279;50.010;8.260;2022-08-14T11:56:49;4.37;;;3.70;;
26656;SDS011;14279;50.010;8.260;2022-08-14T11:59:15;5.83;;;4.13;;
26656;SDS011;14279;50.010;8.260;2022-08-14T12:01:42;5.77;;;4.13;;
26656;SDS011;14279;50.010;8.260;2022-08-14T12:04:13;6.70;;;4.40;;
26656;SDS011;14279;50.010;8.260;2022-08-14T12:06:45;6.40;;;4.50;;
26656;SDS011;14279;50.010;8.260;2022-08-14T12:09:31;8.13;;;3.90;;
26656;SDS011;14279;50.010;8.260;2022-08-14T12:11:59;8.77;;;3.90;;
26656;SDS011;14279;50.010;8.260;2022-08-14T12:14:46;9.90;;;4.30;;
26656;SDS011;14279;50.010;8.260;2022-08-14T12:17:17;4.97;;;3.93;;
26656;SDS011;14279;50.010;8.260;2022-08-14T12:19:44;5.03;;;4.20;;
26656;SDS011;14279;50.010;8.260;2022-08-14T12:22:10;7.03;;;3.93;;
26656;SDS011;14279;50.010;8.260;2022-08-14T12:24:36;5.73;;;4.70;;
26656;SDS011;14279;50.010;8.260;2022-08-14T12:27:01;4.93;;;4.03;;
26656;SDS011;14279;50.010;8.260;2022-08-14T12:29:29;7.63;;;4.20;;
26656;SDS011;14279;50.010;8.260;2022-08-14T12:31:58;6.07;;;4.27;;
26656;SDS011;14279;50.010;8.260;2022-08-14T12:34:32;8.27;;;4.30;;
26656;SDS011;14279;50.010;8.260;2022-08-14T12:37:02;6.00;;;4.17;;
26656;SDS011;14279;50.010;8.260;2022-08-14T12:39:32;6.63;;;4.83;;
26656;SDS011;14279;50.010;8.260;2022-08-14T12:41:58;6.60;;;4.07;;
26656;SDS011;14279;50.010;8.260;2022-08-14T12:44:33;8.87;;;4.43;;
26656;SDS011;14279;50.010;8.260;2022-08-14T12:47:11;10.13;;;5.37;;
26656;SDS011;14279;50.010;8.260;2022-08-14T12:49:47;7.00;;;4.83;;
26656;SDS011;14279;50.010;8.260;2022-08-14T12:52:15;10.23;;;5.10;;
26656;SDS011;14279;50.010;8.260;2022-08-14T12:54:40;11.80;;;5.07;;
26656;SDS011;14279;50.010;8.260;2022-08-14T12:57:07;8.60;;;5.80;;
26656;SDS011;14279;50.010;8.260;2022-08-14T12:59:37;11.07;;;4.97;;
26656;SDS011;14279;50.010;8.260;2022-08-14T13:02:03;6.30;;;4.60;;
26656;SDS011;14279;50.010;8.260;2022-08-14T13:04:28;5.10;;;4.40;;
26656;SDS011;14279;50.010;8.260;2022-08-14T13:06:55;6.90;;;4.63;;
26656;SDS011;14279;50.010;8.260;2022-08-14T13:09:28;5.87;;;4.87;;
26656;SDS011;14279;50.010;8.260;2022-08-14T13:11:54;5.30;;;4.33;;
26656;SDS011;14279;50.010;8.260;2022-08-14T13:14:21;9.77;;;5.63;;
26656;SDS011;14279;50.010;8.260;2022-08-14T13:16:51;4.97;;;4.47;;
26656;SDS011;14279;50.010;8.260;2022-08-14T13:19:19;10.43;;;4.60;;
26656;SDS011;14279;50.010;8.260;2022-08-14T13:21:45;7.03;;;4.37;;
26656;SDS011;14279;50.010;8.260;2022-08-14T13:24:15;4.97;;;4.37;;
26656;SDS011;14279;50.010;8.260;2022-08-14T13:26:44;5.60;;;4.37;;
26656;SDS011;14279;50.010;8.260;2022-08-14T13:29:17;7.60;;;4.00;;
26656;SDS011;14279;50.010;8.260;2022-08-14T13:31:43;9.40;;;4.30;;
26656;SDS011;14279;50.010;8.260;2022-08-14T13:34:11;7.17;;;4.30;;
26656;SDS011;14279;50.010;8.260;2022-08-14T13:36:37;3.27;;;3.07;;
26656;SDS011;14279;50.010;8.260;2022-08-14T13:39:04;3.17;;;2.87;;
26656;SDS011;14279;50.010;8.260;2022-08-14T13:41:29;2.97;;;2.77;;
26656;SDS011;14279;50.010;8.260;2022-08-14T13:43:57;5.40;;;3.30;;
26656;SDS011;14279;50.010;8.260;2022-08-14T13:46:23;5.30;;;3.20;;
26656;SDS011;14279;50.010;8.260;2022-08-14T13:48:49;3.70;;;3.40;;
26656;SDS011;14279;50.010;8.260;2022-08-14T13:51:15;3.53;;;3.23;;
26656;SDS011;14279;50.010;8.260;2022-08-14T13:53:46;8.47;;;3.50;;
26656;SDS011;14279;50.010;8.260;2022-08-14T13:56:27;3.93;;;3.53;;
26656;SDS011;14279;50.010;8.260;2022-08-14T13:59:03;3.63;;;3.23;;
26656;SDS011;14279;50.010;8.260;2022-08-14T14:01:35;4.27;;;3.20;;
26656;SDS011;14279;50.010;8.260;2022-08-14T14:04:06;3.20;;;2.90;;
26656;SDS011;14279;50.010;8.260;2022-08-14T14:06:48;4.50;;;3.50;;
26656;SDS011;14279;50.010;8.260;2022-08-14T14:09:15;3.30;;;3.03;;
26656;SDS011;14279;50.010;8.260;2022-08-14T14:11:47;11.13;;;3.13;;
26656;SDS011;14279;50.010;8.260;2022-08-14T14:14:12;3.60;;;3.30;;
26656;SDS011;14279;50.010;8.260;2022-08-14T14:16:39;3.83;;;3.00;;
26656;SDS011;14279;50.010;8.260;2022-08-14T14:19:04;7.00;;;3.63;;
26656;SDS011;14279;50.010;8.260;2022-08-14T14:21:31;7.60;;;3.83;;
26656;SDS011;14279;50.010;8.260;2022-08-14T14:23:56;7.27;;;3.67;;
26656;SDS011;14279;50.010;8.260;2022-08-14T14:26:23;6.43;;;3.90;;
26656;SDS011;14279;50.010;8.260;2022-08-14T14:28:50;5.60;;;3.17;;
26656;SDS011;14279;50.010;8.260;2022-08-14T14:31:20;7.23;;;3.20;;
26656;SDS011;14279;50.010;8.260;2022-08-14T14:33:49;4.10;;;2.73;;
26656;SDS011;14279;50.010;8.260;2022-08-14T14:36:19;5.53;;;3.37;;
26656;SDS011;14279;50.010;8.260;2022-08-14T14:38:53;3.40;;;2.57;;
26656;SDS011;14279;50.010;8.260;2022-08-14T14:41:25;6.97;;;2.83;;
26656;SDS011;14279;50.010;8.260;2022-08-14T14:43:53;4.60;;;2.87;;
26656;SDS011;14279;50.010;8.260;2022-08-14T14:46:20;2.70;;;2.50;;
26656;SDS011;14279;50.010;8.260;2022-08-14T14:48:46;3.40;;;2.80;;
26656;SDS011;14279;50.010;8.260;2022-08-14T14:51:12;4.90;;;2.40;;
26656;SDS011;14279;50.010;8.260;2022-08-14T14:53:40;3.97;;;2.63;;
26656;SDS011;14279;50.010;8.260;2022-08-14T14:56:06;4.53;;;2.73;;
26656;SDS011;14279;50.010;8.260;2022-08-14T14:58:35;6.83;;;3.07;;
26656;SDS011;14279;50.010;8.260;2022-08-14T15:01:03;3.70;;;3.27;;
26656;SDS011;14279;50.010;8.260;2022-08-14T15:03:29;4.33;;;2.70;;
26656;SDS011;14279;50.010;8.260;2022-08-14T15:05:54;5.10;;;2.80;;
26656;SDS011;14279;50.010;8.260;2022-08-14T15:08:21;3.23;;;2.57;;
26656;SDS011;14279;50.010;8.260;2022-08-14T15:10:46;3.17;;;2.70;;
26656;SDS011;14279;50.010;8.260;2022-08-14T15:13:11;6.60;;;2.90;;
26656;SDS011;14279;50.010;8.260;2022-08-14T15:15:37;2.83;;;2.63;;
26656;SDS011;14279;50.010;8.260;2022-08-14T15:18:05;5.63;;;2.70;;
26656;SDS011;14279;50.010;8.260;2022-08-14T15:20:31;5.17;;;2.80;;
26656;SDS011;14279;50.010;8.260;2022-08-14T15:22:58;4.23;;;3.43;;
26656;SDS011;14279;50.010;8.260;2022-08-14T15:25:27;9.97;;;2.70;;
26656;SDS011;14279;50.010;8.260;2022-08-14T15:27:56;5.40;;;3.37;;
26656;SDS011;14279;50.010;8.260;2022-08-14T15:30:22;5.30;;;3.27;;
26656;SDS011;14279;50.010;8.260;2022-08-14T15:32:47;5.03;;;2.40;;
26656;SDS011;14279;50.010;8.260;2022-08-14T15:35:12;2.70;;;2.50;;
26656;SDS011;14279;50.010;8.260;2022-08-14T15:37:38;3.20;;;3.00;;
26656;SDS011;14279;50.010;8.260;2022-08-14T15:40:04;3.40;;;3.10;;